sensor_id;sensor_type;location;lat;lon;timestamp;pressure;altitude;pressure_sealevel;temperature;humidity
71621;BME280;59471;42.254;23.102;2022-10-13T00:01:10;96642.41;;;12.02;77.20
71621;BME280;59471;42.254;23.102;2022-10-13T00:03:38;96646.97;;;11.83;77.73
71621;BME280;59471;42.254;23.102;2022-10-13T00:06:07;96636.31;;;11.77;78.05
71621;BME280;59471;42.254;23.102;2022-10-13T00:08:35;96636.16;;;11.70;77.63
71621;BME280;59471;42.254;23.102;2022-10-13T00:11:00;96636.66;;;11.74;77.36
71621;BME280;59471;42.254;23.102;2022-10-13T00:13:26;96636.63;;;12.06;75.75
71621;BME280;59471;42.254;23.102;2022-10-13T00:15:52;96640.06;;;12.07;75.35
71621;BME280;59471;42.254;23.102;2022-10-13T00:18:18;96630.72;;;12.13;74.46
71621;BME280;59471;42.254;23.102;2022-10-13T00:20:46;96627.56;;;12.25;74.39
71621;BME280;59471;42.254;23.102;2022-10-13T00:23:13;96636.81;;;11.97;75.49
71621;BME280;59471;42.254;23.102;2022-10-13T00:25:41;96627.28;;;12.12;74.33
71621;BME280;59471;42.254;23.102;2022-10-13T00:28:08;96632.06;;;11.76;75.23
71621;BME280;59471;42.254;23.102;2022-10-13T00:30:34;96627.13;;;11.97;75.24
71621;BME280;59471;42.254;23.102;2022-10-13T00:33:00;96629.63;;;11.91;75.45
71621;BME280;59471;42.254;23.102;2022-10-13T00:35:26;96638.78;;;11.78;75.32
71621;BME280;59471;42.254;23.102;2022-10-13T00:37:52;96631.25;;;11.51;76.46
71621;BME280;59471;42.254;23.102;2022-10-13T00:40:18;96632.91;;;11.85;75.13
71621;BME280;59471;42.254;23.102;2022-10-13T00:42:43;96617.13;;;11.68;75.88
71621;BME280;59471;42.254;23.102;2022-10-13T00:47:55;96619.09;;;11.74;76.04
71621;BME280;59471;42.254;23.102;2022-10-13T00:50:36;96612.22;;;11.73;75.35
71621;BME280;59471;42.254;23.102;2022-10-13T00:53:03;96612.88;;;11.67;76.18
71621;BME280;59471;42.254;23.102;2022-10-13T00:55:32;96620.06;;;11.81;75.64
71621;BME280;59471;42.254;23.102;2022-10-13T00:57:59;96610.56;;;11.80;76.15
71621;BME280;59471;42.254;23.102;2022-10-13T01:00:27;96617.13;;;11.68;75.98
71621;BME280;59471;42.254;23.102;2022-10-13T01:02:54;96615.50;;;11.67;76.43
71621;BME280;59471;42.254;23.102;2022-10-13T01:05:20;96617.44;;;11.98;75.80
71621;BME280;59471;42.254;23.102;2022-10-13T01:07:48;96620.09;;;11.73;76.13
71621;BME280;59471;42.254;23.102;2022-10-13T01:10:33;96617.78;;;11.62;77.84
71621;BME280;59471;42.254;23.102;2022-10-13T01:13:09;96614.19;;;11.88;76.18
71621;BME280;59471;42.254;23.102;2022-10-13T01:15:53;96612.88;;;11.67;77.19
71621;BME280;59471;42.254;23.102;2022-10-13T01:18:43;96613.53;;;11.77;76.12
71621;BME280;59471;42.254;23.102;2022-10-13T01:22:17;96612.53;;;11.78;76.63
71621;BME280;59471;42.254;23.102;2022-10-13T01:24:28;96613.53;;;11.77;76.33
71621;BME280;59471;42.254;23.102;2022-10-13T01:27:06;96620.09;;;11.73;76.61
71621;BME280;59471;42.254;23.102;2022-10-13T01:30:06;96625.50;;;11.31;77.78
71621;BME280;59471;42.254;23.102;2022-10-13T01:38:54;96625.59;;;10.88;78.75
71621;BME280;59471;42.254;23.102;2022-10-13T01:41:39;96619.75;;;11.27;77.74
71621;BME280;59471;42.254;23.102;2022-10-13T01:44:20;96616.16;;;11.20;77.93
71621;BME280;59471;42.254;23.102;2022-10-13T01:46:50;96620.25;;;11.39;76.99
71621;BME280;59471;42.254;23.102;2022-10-13T01:49:18;96620.72;;;11.34;76.82
71621;BME280;59471;42.254;23.102;2022-10-13T01:51:48;96622.72;;;11.32;77.53
71621;BME280;59471;42.254;23.102;2022-10-13T01:54:15;96619.06;;;11.09;77.94
71621;BME280;59471;42.254;23.102;2022-10-13T01:56:41;96614.84;;;11.24;77.72
71621;BME280;59471;42.254;23.102;2022-10-13T01:59:10;96605.34;;;11.23;77.45
71621;BME280;59471;42.254;23.102;2022-10-13T02:07:18;96605.28;;;10.99;78.73
71621;BME280;59471;42.254;23.102;2022-10-13T02:12:37;96606.56;;;10.86;80.60
71621;BME280;59471;42.254;23.102;2022-10-13T02:15:08;96605.44;;;10.89;80.51
71621;BME280;59471;42.254;23.102;2022-10-13T02:17:35;96603.03;;;11.20;79.72
71621;BME280;59471;42.254;23.102;2022-10-13T02:20:04;96601.06;;;11.22;78.50
71621;BME280;59471;42.254;23.102;2022-10-13T02:22:32;96604.81;;;11.11;79.71
71621;BME280;59471;42.254;23.102;2022-10-13T02:25:03;96593.53;;;11.44;78.21
71621;BME280;59471;42.254;23.102;2022-10-13T02:27:29;96594.81;;;11.15;79.77
71621;BME280;59471;42.254;23.102;2022-10-13T02:29:56;96599.06;;;11.00;80.82
71621;BME280;59471;42.254;23.102;2022-10-13T02:32:22;96590.56;;;11.06;80.01
71621;BME280;59471;42.254;23.102;2022-10-13T02:34:49;96588.13;;;11.37;78.83
71621;BME280;59471;42.254;23.102;2022-10-13T02:37:14;96592.56;;;11.36;78.84
71621;BME280;59471;42.254;23.102;2022-10-13T02:39:40;96587.63;;;11.33;79.01
71621;BME280;59471;42.254;23.102;2022-10-13T02:42:06;96587.31;;;11.53;78.23
71621;BME280;59471;42.254;23.102;2022-10-13T02:44:31;96585.97;;;11.65;77.51
71621;BME280;59471;42.254;23.102;2022-10-13T02:46:57;96582.72;;;11.30;79.00
71621;BME280;59471;42.254;23.102;2022-10-13T02:49:22;96582.53;;;11.56;78.34
71621;BME280;59471;42.254;23.102;2022-10-13T02:51:48;96577.94;;;11.50;78.41
71621;BME280;59471;42.254;23.102;2022-10-13T02:54:14;96573.69;;;11.25;79.41
71621;BME280;59471;42.254;23.102;2022-10-13T02:56:39;96568.31;;;11.26;79.30
71621;BME280;59471;42.254;23.102;2022-10-13T02:59:05;96574.19;;;11.61;78.32
71621;BME280;59471;42.254;23.102;2022-10-13T03:01:30;96570.25;;;11.49;78.69
71621;BME280;59471;42.254;23.102;2022-10-13T03:03:57;96569.63;;;11.39;78.61
71621;BME280;59471;42.254;23.102;2022-10-13T03:06:23;96564.69;;;11.35;78.78
71621;BME280;59471;42.254;23.102;2022-10-13T03:08:49;96575.50;;;11.49;78.32
71621;BME280;59471;42.254;23.102;2022-10-13T03:11:14;96569.56;;;11.71;77.36
71621;BME280;59471;42.254;23.102;2022-10-13T03:13:40;96573.53;;;11.67;77.77
71621;BME280;59471;42.254;23.102;2022-10-13T03:16:06;96572.88;;;11.57;78.58
71621;BME280;59471;42.254;23.102;2022-10-13T03:18:32;96573.84;;;11.64;77.78
71621;BME280;59471;42.254;23.102;2022-10-13T03:20:59;96574.34;;;11.59;78.16
71621;BME280;59471;42.254;23.102;2022-10-13T03:23:26;96584.69;;;11.53;78.21
71621;BME280;59471;42.254;23.102;2022-10-13T03:25:53;96582.03;;;11.69;77.29
71621;BME280;59471;42.254;23.102;2022-10-13T03:28:19;96590.91;;;11.60;78.03
71621;BME280;59471;42.254;23.102;2022-10-13T03:30:45;96585.97;;;11.81;76.71
71621;BME280;59471;42.254;23.102;2022-10-13T03:33:11;96596.50;;;11.57;78.20
71621;BME280;59471;42.254;23.102;2022-10-13T03:35:37;96595.81;;;11.71;77.88
71621;BME280;59471;42.254;23.102;2022-10-13T03:38:02;96599.91;;;11.66;78.04
71621;BME280;59471;42.254;23.102;2022-10-13T03:40:28;96595.16;;;11.77;77.68
71621;BME280;59471;42.254;23.102;2022-10-13T03:42:53;96590.56;;;11.71;77.36
71621;BME280;59471;42.254;23.102;2022-10-13T03:45:19;96580.72;;;11.81;77.27
71621;BME280;59471;42.254;23.102;2022-10-13T03:47:45;96589.09;;;11.77;76.80
71621;BME280;59471;42.254;23.102;2022-10-13T03:50:10;96589.28;;;11.51;78.21
71621;BME280;59471;42.254;23.102;2022-10-13T03:52:36;96595.84;;;11.55;78.38
71621;BME280;59471;42.254;23.102;2022-10-13T03:55:02;96590.25;;;11.91;76.39
71621;BME280;59471;42.254;23.102;2022-10-13T03:57:28;96593.19;;;11.88;76.99
71621;BME280;59471;42.254;23.102;2022-10-13T03:59:55;96587.78;;;11.81;76.87
71621;BME280;59471;42.254;23.102;2022-10-13T04:02:22;96591.56;;;11.62;78.16
71621;BME280;59471;42.254;23.102;2022-10-13T04:04:48;96584.69;;;11.61;78.03
71621;BME280;59471;42.254;23.102;2022-10-13T04:07:14;96580.06;;;11.71;77.57
71621;BME280;59471;42.254;23.102;2022-10-13T04:09:40;96577.78;;;11.44;78.10
71621;BME280;59471;42.254;23.102;2022-10-13T04:12:05;96579.63;;;11.51;78.28
71621;BME280;59471;42.254;23.102;2022-10-13T04:14:31;96575.66;;;11.55;78.30
71621;BME280;59471;42.254;23.102;2022-10-13T04:16:57;96579.59;;;11.43;78.81
71621;BME280;59471;42.254;23.102;2022-10-13T04:19:22;96575.50;;;11.41;78.84
71621;BME280;59471;42.254;23.102;2022-10-13T04:21:48;96569.59;;;11.55;77.44
71621;BME280;59471;42.254;23.102;2022-10-13T04:24:14;96563.38;;;11.56;78.55
71621;BME280;59471;42.254;23.102;2022-10-13T04:26:41;96572.22;;;11.47;78.05
71621;BME280;59471;42.254;23.102;2022-10-13T04:29:09;96569.28;;;11.42;78.25
71621;BME280;59471;42.254;23.102;2022-10-13T04:31:36;96580.75;;;11.49;78.29
71621;BME280;59471;42.254;23.102;2022-10-13T04:34:03;96578.78;;;11.51;78.43
71621;BME280;59471;42.254;23.102;2022-10-13T04:36:28;96583.03;;;11.44;79.25
71621;BME280;59471;42.254;23.102;2022-10-13T04:38:54;96578.13;;;11.90;76.62
71621;BME280;59471;42.254;23.102;2022-10-13T04:41:20;96590.91;;;11.52;77.68
71621;BME280;59471;42.254;23.102;2022-10-13T04:43:47;96583.69;;;11.37;78.79
71621;BME280;59471;42.254;23.102;2022-10-13T04:46:18;96591.25;;;11.49;78.38
71621;BME280;59471;42.254;23.102;2022-10-13T04:48:46;96593.84;;;11.41;78.78
71621;BME280;59471;42.254;23.102;2022-10-13T04:51:14;96586.50;;;11.36;79.53
71621;BME280;59471;42.254;23.102;2022-10-13T04:53:42;96589.56;;;11.72;78.61
71621;BME280;59471;42.254;23.102;2022-10-13T04:56:13;96590.25;;;11.74;78.19
71621;BME280;59471;42.254;23.102;2022-10-13T04:58:42;96591.88;;;11.59;78.90
71621;BME280;59471;42.254;23.102;2022-10-13T05:01:14;96591.25;;;11.49;79.47
71621;BME280;59471;42.254;23.102;2022-10-13T05:03:41;96585.03;;;11.42;79.34
71621;BME280;59471;42.254;23.102;2022-10-13T05:06:18;96590.91;;;11.52;80.13
71621;BME280;59471;42.254;23.102;2022-10-13T05:08:46;96590.59;;;11.55;79.73
71621;BME280;59471;42.254;23.102;2022-10-13T05:11:12;96581.56;;;11.49;79.86
71621;BME280;59471;42.254;23.102;2022-10-13T05:13:37;96593.53;;;11.60;78.59
71621;BME280;59471;42.254;23.102;2022-10-13T05:16:11;96582.03;;;11.69;79.14
71621;BME280;59471;42.254;23.102;2022-10-13T05:18:38;96587.63;;;11.66;79.17
71621;BME280;59471;42.254;23.102;2022-10-13T05:21:16;96592.19;;;12.05;77.68
71621;BME280;59471;42.254;23.102;2022-10-13T05:23:44;96589.94;;;11.86;77.85
71621;BME280;59471;42.254;23.102;2022-10-13T05:26:15;96596.31;;;11.58;79.01
71621;BME280;59471;42.254;23.102;2022-10-13T05:28:42;96609.94;;;11.54;79.06
71621;BME280;59471;42.254;23.102;2022-10-13T05:31:16;96611.56;;;11.71;78.18
71621;BME280;59471;42.254;23.102;2022-10-13T05:33:45;96615.50;;;11.67;78.70
71621;BME280;59471;42.254;23.102;2022-10-13T05:36:17;96617.31;;;11.91;77.84
71621;BME280;59471;42.254;23.102;2022-10-13T05:38:44;96617.31;;;11.91;77.69
71621;BME280;59471;42.254;23.102;2022-10-13T05:41:12;96620.41;;;11.78;78.28
71621;BME280;59471;42.254;23.102;2022-10-13T05:43:39;96612.53;;;12.03;77.50
71621;BME280;59471;42.254;23.102;2022-10-13T05:46:05;96627.31;;;11.96;77.23
71621;BME280;59471;42.254;23.102;2022-10-13T05:48:32;96627.81;;;11.99;77.27
71621;BME280;59471;42.254;23.102;2022-10-13T05:51:00;96639.16;;;11.92;78.00
71621;BME280;59471;42.254;23.102;2022-10-13T05:53:30;96632.72;;;12.11;77.67
71621;BME280;59471;42.254;23.102;2022-10-13T05:56:00;96635.16;;;12.12;77.20
71621;BME280;59471;42.254;23.102;2022-10-13T05:58:42;96634.56;;;11.86;77.99
71621;BME280;59471;42.254;23.102;2022-10-13T06:01:19;96638.78;;;12.03;78.02
71621;BME280;59471;42.254;23.102;2022-10-13T06:03:48;96634.63;;;12.25;76.60
71621;BME280;59471;42.254;23.102;2022-10-13T06:06:17;96630.16;;;12.42;76.26
71621;BME280;59471;42.254;23.102;2022-10-13T06:08:42;96631.84;;;12.26;76.35
71621;BME280;59471;42.254;23.102;2022-10-13T06:11:08;96626.56;;;12.35;75.92
71621;BME280;59471;42.254;23.102;2022-10-13T06:13:34;96625.28;;;12.31;76.34
71621;BME280;59471;42.254;23.102;2022-10-13T06:16:00;96628.56;;;12.24;75.56
71621;BME280;59471;42.254;23.102;2022-10-13T06:18:26;96627.63;;;12.01;76.82
71621;BME280;59471;42.254;23.102;2022-10-13T06:20:52;96634.81;;;12.23;75.16
71621;BME280;59471;42.254;23.102;2022-10-13T06:23:18;96627.63;;;12.17;75.88
71621;BME280;59471;42.254;23.102;2022-10-13T06:25:51;96631.53;;;12.13;75.63
71621;BME280;59471;42.254;23.102;2022-10-13T06:28:17;96639.41;;;12.29;74.97
71621;BME280;59471;42.254;23.102;2022-10-13T06:30:44;96626.75;;;12.33;74.90
71621;BME280;59471;42.254;23.102;2022-10-13T06:33:18;96629.81;;;12.45;75.10
71621;BME280;59471;42.254;23.102;2022-10-13T06:35:44;96637.00;;;12.59;73.09
71621;BME280;59471;42.254;23.102;2022-10-13T06:38:10;96631.56;;;12.92;71.72
71621;BME280;59471;42.254;23.102;2022-10-13T06:40:35;96634.00;;;12.70;72.95
71621;BME280;59471;42.254;23.102;2022-10-13T06:43:01;96625.81;;;12.65;72.72
71621;BME280;59471;42.254;23.102;2022-10-13T06:45:27;96626.06;;;12.79;72.38
71621;BME280;59471;42.254;23.102;2022-10-13T06:47:53;96614.25;;;12.74;72.16
71621;BME280;59471;42.254;23.102;2022-10-13T06:50:20;96620.88;;;12.62;73.03
71621;BME280;59471;42.254;23.102;2022-10-13T06:52:46;96625.25;;;12.78;73.58
71621;BME280;59471;42.254;23.102;2022-10-13T06:55:12;96623.25;;;13.11;71.33
71621;BME280;59471;42.254;23.102;2022-10-13T06:57:37;96622.91;;;13.14;71.21
71621;BME280;59471;42.254;23.102;2022-10-13T07:00:04;96629.97;;;13.14;70.74
71621;BME280;59471;42.254;23.102;2022-10-13T07:02:30;96622.88;;;13.45;70.82
71621;BME280;59471;42.254;23.102;2022-10-13T07:04:56;96618.50;;;13.38;70.98
71621;BME280;59471;42.254;23.102;2022-10-13T07:07:21;96620.84;;;13.33;70.55
71621;BME280;59471;42.254;23.102;2022-10-13T07:09:47;96614.25;;;13.37;71.34
71621;BME280;59471;42.254;23.102;2022-10-13T07:12:13;96614.91;;;13.77;70.53
71621;BME280;59471;42.254;23.102;2022-10-13T07:14:39;96612.06;;;13.63;70.78
71621;BME280;59471;42.254;23.102;2022-10-13T07:17:05;96614.91;;;13.77;70.94
71621;BME280;59471;42.254;23.102;2022-10-13T07:19:30;96617.63;;;13.68;70.53
71621;BME280;59471;42.254;23.102;2022-10-13T07:21:56;96617.63;;;13.68;70.42
71621;BME280;59471;42.254;23.102;2022-10-13T07:24:22;96619.19;;;13.78;70.62
71621;BME280;59471;42.254;23.102;2022-10-13T07:26:47;96616.91;;;13.75;70.95
71621;BME280;59471;42.254;23.102;2022-10-13T07:29:13;96619.09;;;13.86;70.03
71621;BME280;59471;42.254;23.102;2022-10-13T07:31:41;96620.38;;;13.90;70.70
71621;BME280;59471;42.254;23.102;2022-10-13T07:34:08;96617.97;;;14.03;70.12
71621;BME280;59471;42.254;23.102;2022-10-13T07:36:34;96617.50;;;14.14;68.69
71621;BME280;59471;42.254;23.102;2022-10-13T07:39:00;96618.31;;;14.00;70.38
71621;BME280;59471;42.254;23.102;2022-10-13T07:41:28;96620.63;;;13.80;69.77
71621;BME280;59471;42.254;23.102;2022-10-13T07:43:55;96620.88;;;13.71;70.57
71621;BME280;59471;42.254;23.102;2022-10-13T07:46:21;96623.66;;;13.92;69.63
71621;BME280;59471;42.254;23.102;2022-10-13T07:48:47;96622.59;;;14.01;68.73
71621;BME280;59471;42.254;23.102;2022-10-13T07:51:12;96619.00;;;13.79;71.26
71621;BME280;59471;42.254;23.102;2022-10-13T07:53:39;96621.38;;;13.89;71.01
71621;BME280;59471;42.254;23.102;2022-10-13T07:56:08;96627.59;;;14.11;69.70
71621;BME280;59471;42.254;23.102;2022-10-13T07:58:36;96623.66;;;13.92;70.30
71621;BME280;59471;42.254;23.102;2022-10-13T08:01:04;96617.16;;;14.18;70.05
71621;BME280;59471;42.254;23.102;2022-10-13T08:03:30;96621.88;;;14.07;70.89
71621;BME280;59471;42.254;23.102;2022-10-13T08:06:01;96615.34;;;14.03;70.42
71621;BME280;59471;42.254;23.102;2022-10-13T08:08:28;96618.59;;;13.90;70.94
71621;BME280;59471;42.254;23.102;2022-10-13T08:10:54;96615.94;;;14.05;70.92
71621;BME280;59471;42.254;23.102;2022-10-13T08:13:20;96617.25;;;14.09;70.44
71621;BME280;59471;42.254;23.102;2022-10-13T08:15:45;96614.38;;;13.96;70.99
71621;BME280;59471;42.254;23.102;2022-10-13T08:18:13;96610.16;;;14.10;71.19
71621;BME280;59471;42.254;23.102;2022-10-13T08:20:44;96604.78;;;14.03;71.15
71621;BME280;59471;42.254;23.102;2022-10-13T08:23:12;96612.69;;;14.18;70.59
71621;BME280;59471;42.254;23.102;2022-10-13T08:25:39;96610.88;;;14.33;69.26
71621;BME280;59471;42.254;23.102;2022-10-13T08:30:47;96609.34;;;14.09;70.95
71621;BME280;59471;42.254;23.102;2022-10-13T08:33:13;96600.88;;;14.14;70.05
71621;BME280;59471;42.254;23.102;2022-10-13T08:35:39;96610.44;;;14.59;69.31
71621;BME280;59471;42.254;23.102;2022-10-13T08:38:05;96602.25;;;14.25;69.95
71621;BME280;59471;42.254;23.102;2022-10-13T08:40:32;96601.72;;;14.44;69.32
71621;BME280;59471;42.254;23.102;2022-10-13T08:42:59;96596.78;;;14.71;68.66
71621;BME280;59471;42.254;23.102;2022-10-13T08:45:30;96598.63;;;14.55;69.63
71621;BME280;59471;42.254;23.102;2022-10-13T08:48:00;96592.78;;;14.75;69.28
71621;BME280;59471;42.254;23.102;2022-10-13T08:50:32;96592.50;;;14.84;69.16
71621;BME280;59471;42.254;23.102;2022-10-13T08:53:12;96592.66;;;14.98;68.03
71621;BME280;59471;42.254;23.102;2022-10-13T08:55:47;96586.16;;;15.00;68.06
71621;BME280;59471;42.254;23.102;2022-10-13T08:58:24;96592.91;;;15.24;67.71
71621;BME280;59471;42.254;23.102;2022-10-13T09:07:01;96577.47;;;15.21;67.04
71621;BME280;59471;42.254;23.102;2022-10-13T09:09:30;96578.63;;;14.97;67.31
71621;BME280;59471;42.254;23.102;2022-10-13T09:11:57;96578.16;;;15.51;63.29
71621;BME280;59471;42.254;23.102;2022-10-13T09:14:24;96579.78;;;15.52;63.47
71621;BME280;59471;42.254;23.102;2022-10-13T09:16:53;96579.19;;;14.93;66.52
71621;BME280;59471;42.254;23.102;2022-10-13T09:22:13;96576.81;;;15.19;67.36
71621;BME280;59471;42.254;23.102;2022-10-13T09:24:39;96580.69;;;15.17;67.04
71621;BME280;59471;42.254;23.102;2022-10-13T09:27:15;96578.53;;;15.48;65.58
71621;BME280;59471;42.254;23.102;2022-10-13T09:29:42;96577.09;;;15.67;64.35
71621;BME280;59471;42.254;23.102;2022-10-13T09:32:20;96577.63;;;15.41;65.96
71621;BME280;59471;42.254;23.102;2022-10-13T09:34:48;96580.06;;;15.36;66.05
71621;BME280;59471;42.254;23.102;2022-10-13T09:37:20;96573.25;;;15.48;64.59
71621;BME280;59471;42.254;23.102;2022-10-13T09:40:11;96573.13;;;15.35;65.98
71621;BME280;59471;42.254;23.102;2022-10-13T09:42:38;96572.63;;;15.25;66.99
71621;BME280;59471;42.254;23.102;2022-10-13T09:45:16;96572.75;;;15.38;65.28
71621;BME280;59471;42.254;23.102;2022-10-13T09:47:52;96562.59;;;15.14;67.44
71621;BME280;59471;42.254;23.102;2022-10-13T09:50:23;96559.56;;;15.17;67.47
71621;BME280;59471;42.254;23.102;2022-10-13T09:52:51;96569.13;;;15.39;65.64
71621;BME280;59471;42.254;23.102;2022-10-13T09:55:35;96560.28;;;15.53;65.19
71621;BME280;59471;42.254;23.102;2022-10-13T09:58:07;96557.00;;;15.45;65.58
71621;BME280;59471;42.254;23.102;2022-10-13T10:00:48;96548.19;;;15.66;65.31
71621;BME280;59471;42.254;23.102;2022-10-13T10:03:25;96541.72;;;15.90;65.48
71621;BME280;59471;42.254;23.102;2022-10-13T10:06:16;96539.84;;;15.62;64.64
71621;BME280;59471;42.254;23.102;2022-10-13T10:08:56;96539.59;;;15.57;65.33
71621;BME280;59471;42.254;23.102;2022-10-13T10:11:33;96546.09;;;15.55;65.93
71621;BME280;59471;42.254;23.102;2022-10-13T10:20:36;96536.16;;;15.57;64.59
71621;BME280;59471;42.254;23.102;2022-10-13T10:23:33;96530.31;;;15.61;65.43
71621;BME280;59471;42.254;23.102;2022-10-13T10:26:14;96524.97;;;15.55;66.87
71621;BME280;59471;42.254;23.102;2022-10-13T10:28:48;96523.56;;;15.80;65.21
71621;BME280;59471;42.254;23.102;2022-10-13T10:31:25;96519.13;;;15.87;65.46
71621;BME280;59471;42.254;23.102;2022-10-13T10:34:09;96514.03;;;15.58;66.23
71621;BME280;59471;42.254;23.102;2022-10-13T10:39:40;96508.94;;;15.84;65.43
71621;BME280;59471;42.254;23.102;2022-10-13T10:44:56;96501.56;;;15.45;66.83
71621;BME280;59471;42.254;23.102;2022-10-13T10:47:35;96493.19;;;15.41;66.55
71621;BME280;59471;42.254;23.102;2022-10-13T10:50:06;96488.78;;;15.48;67.08
71621;BME280;59471;42.254;23.102;2022-10-13T10:55:51;96477.13;;;15.64;66.37
71621;BME280;59471;42.254;23.102;2022-10-13T10:58:28;96481.00;;;15.96;66.06
71621;BME280;59471;42.254;23.102;2022-10-13T11:01:06;96478.19;;;16.05;65.12
71621;BME280;59471;42.254;23.102;2022-10-13T11:13:52;96466.91;;;16.24;63.43
71621;BME280;59471;42.254;23.102;2022-10-13T11:16:32;96465.19;;;16.10;63.86
71621;BME280;59471;42.254;23.102;2022-10-13T11:40:35;96414.81;;;17.06;59.48
71621;BME280;59471;42.254;23.102;2022-10-13T11:46:48;96412.56;;;17.09;59.63
71621;BME280;59471;42.254;23.102;2022-10-13T11:49:42;96408.28;;;17.02;60.50
71621;BME280;59471;42.254;23.102;2022-10-13T11:55:04;96399.00;;;17.77;57.92
71621;BME280;59471;42.254;23.102;2022-10-13T11:57:35;96397.06;;;18.11;54.66
71621;BME280;59471;42.254;23.102;2022-10-13T12:00:00;96391.09;;;17.64;57.70
71621;BME280;59471;42.254;23.102;2022-10-13T12:02:27;96387.81;;;17.75;58.19
71621;BME280;59471;42.254;23.102;2022-10-13T12:07:41;96378.75;;;17.05;57.00
71621;BME280;59471;42.254;23.102;2022-10-13T12:10:16;96376.28;;;16.70;58.60
71621;BME280;59471;42.254;23.102;2022-10-13T12:12:47;96373.88;;;16.88;60.35
71621;BME280;59471;42.254;23.102;2022-10-13T12:18:24;96372.66;;;16.84;60.65
71621;BME280;59471;42.254;23.102;2022-10-13T12:20:57;96366.56;;;16.97;60.37
71621;BME280;59471;42.254;23.102;2022-10-13T12:23:24;96376.47;;;17.42;60.10
71621;BME280;59471;42.254;23.102;2022-10-13T12:25:52;96370.53;;;17.59;58.71
71621;BME280;59471;42.254;23.102;2022-10-13T12:28:29;96368.44;;;17.75;58.19
71621;BME280;59471;42.254;23.102;2022-10-13T12:31:27;96368.84;;;17.85;57.02
71621;BME280;59471;42.254;23.102;2022-10-13T12:34:00;96372.63;;;18.02;57.81
71621;BME280;59471;42.254;23.102;2022-10-13T12:36:33;96382.69;;;17.94;58.76
71621;BME280;59471;42.254;23.102;2022-10-13T12:39:13;96370.38;;;18.06;55.97
71621;BME280;59471;42.254;23.102;2022-10-13T12:41:45;96364.31;;;17.92;57.33
71621;BME280;59471;42.254;23.102;2022-10-13T12:44:20;96354.06;;;18.02;58.15
71621;BME280;59471;42.254;23.102;2022-10-13T12:46:52;96357.72;;;18.08;54.18
71621;BME280;59471;42.254;23.102;2022-10-13T12:52:03;96355.00;;;17.70;56.21
71621;BME280;59471;42.254;23.102;2022-10-13T12:54:33;96353.44;;;17.49;55.55
71621;BME280;59471;42.254;23.102;2022-10-13T12:57:30;96356.75;;;17.37;56.18
71621;BME280;59471;42.254;23.102;2022-10-13T13:00:02;96356.69;;;17.51;58.72
71621;BME280;59471;42.254;23.102;2022-10-13T13:02:31;96354.63;;;17.66;57.21
71621;BME280;59471;42.254;23.102;2022-10-13T13:04:57;96350.56;;;17.57;57.47
71621;BME280;59471;42.254;23.102;2022-10-13T13:07:32;96355.91;;;17.44;56.98
71621;BME280;59471;42.254;23.102;2022-10-13T13:12:35;96352.00;;;18.11;55.97
71621;BME280;59471;42.254;23.102;2022-10-13T13:15:31;96352.84;;;18.05;57.43
71621;BME280;59471;42.254;23.102;2022-10-13T13:20:52;96361.09;;;17.83;58.49
71621;BME280;59471;42.254;23.102;2022-10-13T13:23:19;96357.25;;;17.66;59.03
71621;BME280;59471;42.254;23.102;2022-10-13T13:25:46;96357.84;;;17.68;59.26
71621;BME280;59471;42.254;23.102;2022-10-13T13:28:13;96346.09;;;17.57;58.17
71621;BME280;59471;42.254;23.102;2022-10-13T13:30:40;96346.31;;;17.43;59.83
71621;BME280;59471;42.254;23.102;2022-10-13T13:33:09;96346.34;;;17.29;59.90
71621;BME280;59471;42.254;23.102;2022-10-13T13:35:36;96342.69;;;17.30;60.92
71621;BME280;59471;42.254;23.102;2022-10-13T13:38:02;96343.34;;;17.19;60.96
71621;BME280;59471;42.254;23.102;2022-10-13T13:40:28;96350.25;;;17.20;60.81
71621;BME280;59471;42.254;23.102;2022-10-13T13:42:54;96334.97;;;17.22;61.48
71621;BME280;59471;42.254;23.102;2022-10-13T13:45:21;96334.38;;;17.07;60.95
71621;BME280;59471;42.254;23.102;2022-10-13T13:47:49;96331.13;;;17.05;61.17
71621;BME280;59471;42.254;23.102;2022-10-13T13:50:21;96329.13;;;16.94;61.46
71621;BME280;59471;42.254;23.102;2022-10-13T13:52:48;96332.19;;;16.77;62.42
71621;BME280;59471;42.254;23.102;2022-10-13T13:55:14;96325.44;;;16.95;61.81
71621;BME280;59471;42.254;23.102;2022-10-13T13:57:41;96321.34;;;16.99;61.56
71621;BME280;59471;42.254;23.102;2022-10-13T14:00:10;96323.81;;;16.94;61.73
71621;BME280;59471;42.254;23.102;2022-10-13T14:02:37;96309.97;;;16.98;62.04
71621;BME280;59471;42.254;23.102;2022-10-13T14:05:03;96312.22;;;16.95;62.37
71621;BME280;59471;42.254;23.102;2022-10-13T14:07:29;96316.91;;;16.86;61.42
71621;BME280;59471;42.254;23.102;2022-10-13T14:09:55;96309.59;;;16.81;62.16
71621;BME280;59471;42.254;23.102;2022-10-13T14:12:21;96316.47;;;16.69;62.59
71621;BME280;59471;42.254;23.102;2022-10-13T14:14:46;96314.47;;;16.71;62.54
71621;BME280;59471;42.254;23.102;2022-10-13T14:17:12;96305.50;;;16.85;62.24
71621;BME280;59471;42.254;23.102;2022-10-13T14:19:37;96311.41;;;16.74;62.60
71621;BME280;59471;42.254;23.102;2022-10-13T14:22:03;96308.13;;;16.72;62.29
71621;BME280;59471;42.254;23.102;2022-10-13T14:24:29;96317.09;;;16.71;63.26
71621;BME280;59471;42.254;23.102;2022-10-13T14:26:55;96321.38;;;16.59;63.00
71621;BME280;59471;42.254;23.102;2022-10-13T14:29:21;96332.34;;;16.69;63.09
71621;BME280;59471;42.254;23.102;2022-10-13T14:31:46;96328.69;;;16.70;63.16
71621;BME280;59471;42.254;23.102;2022-10-13T14:34:12;96329.28;;;16.72;63.17
71621;BME280;59471;42.254;23.102;2022-10-13T14:36:38;96326.66;;;16.72;63.36
71621;BME280;59471;42.254;23.102;2022-10-13T14:39:03;96325.00;;;16.58;63.71